Aydlett, North Carolina
Current Conditions -  °F | °C
As of 2:17 PM on Saturday 20 Dec 2014 (Local Time) from KONX Reporting Station
Overcast Overcast  
Wind Chill: 38°   Ceiling: 6500
Heat Index: 41°   Visibility: 10mi
Dew Point: 28°   Wind: 5mph
Humidity: 61%   Direction: 350°N
Pressure: 30.27"   Gusts: NA
Location:  36.33°N, 75.91°W
Report Text: KONX 201917Z AUTO 35004KT 10SM OVC065 05/M02 A3027 RMK AO2
Loading
Personal Weather Stations






























Interactive Weather Map New forecast layout! Learn more

10-Day Weather Forecast

Advertisements
Track Severe Weather on mobile